sensor_id;sensor_type;location;lat;lon;timestamp;temperature;humidity
9971;DHT22;5026;51.494;11.974;2023-11-21T00:00:25;7.10;99.90
9971;DHT22;5026;51.494;11.974;2023-11-21T00:02:53;7.00;99.90
9971;DHT22;5026;51.494;11.974;2023-11-21T00:05:20;7.00;99.90
9971;DHT22;5026;51.494;11.974;2023-11-21T00:07:48;6.80;99.90
9971;DHT22;5026;51.494;11.974;2023-11-21T00:10:17;6.80;99.90
9971;DHT22;5026;51.494;11.974;2023-11-21T00:12:44;6.80;99.90
9971;DHT22;5026;51.494;11.974;2023-11-21T00:15:13;6.70;99.90
9971;DHT22;5026;51.494;11.974;2023-11-21T00:17:40;6.70;99.90
9971;DHT22;5026;51.494;11.974;2023-11-21T00:20:10;6.70;99.90
9971;DHT22;5026;51.494;11.974;2023-11-21T00:22:38;6.80;99.90
9971;DHT22;5026;51.494;11.974;2023-11-21T00:25:06;6.80;99.90
9971;DHT22;5026;51.494;11.974;2023-11-21T00:27:34;6.70;99.90
9971;DHT22;5026;51.494;11.974;2023-11-21T00:30:01;6.70;99.90
9971;DHT22;5026;51.494;11.974;2023-11-21T00:32:30;6.70;99.90
9971;DHT22;5026;51.494;11.974;2023-11-21T00:34:57;6.70;99.90
9971;DHT22;5026;51.494;11.974;2023-11-21T00:37:26;6.70;99.90
9971;DHT22;5026;51.494;11.974;2023-11-21T00:39:53;6.60;99.90
9971;DHT22;5026;51.494;11.974;2023-11-21T00:42:20;6.60;99.90
9971;DHT22;5026;51.494;11.974;2023-11-21T00:44:48;6.60;99.90
9971;DHT22;5026;51.494;11.974;2023-11-21T00:47:15;6.60;99.90
9971;DHT22;5026;51.494;11.974;2023-11-21T00:49:42;6.60;99.90
9971;DHT22;5026;51.494;11.974;2023-11-21T00:52:09;6.50;99.90
9971;DHT22;5026;51.494;11.974;2023-11-21T00:54:37;6.40;99.90
9971;DHT22;5026;51.494;11.974;2023-11-21T00:57:04;6.50;99.90
9971;DHT22;5026;51.494;11.974;2023-11-21T00:59:31;6.40;99.90
9971;DHT22;5026;51.494;11.974;2023-11-21T01:01:58;6.50;99.90
9971;DHT22;5026;51.494;11.974;2023-11-21T01:04:27;6.40;99.90
9971;DHT22;5026;51.494;11.974;2023-11-21T01:06:54;6.40;99.90
9971;DHT22;5026;51.494;11.974;2023-11-21T01:09:21;6.40;99.90
9971;DHT22;5026;51.494;11.974;2023-11-21T01:11:49;6.40;99.90
9971;DHT22;5026;51.494;11.974;2023-11-21T01:14:17;6.50;99.90
9971;DHT22;5026;51.494;11.974;2023-11-21T01:16:44;6.50;99.90
9971;DHT22;5026;51.494;11.974;2023-11-21T01:19:11;6.50;99.90
9971;DHT22;5026;51.494;11.974;2023-11-21T01:21:38;6.50;99.90
9971;DHT22;5026;51.494;11.974;2023-11-21T01:24:06;6.50;99.90
9971;DHT22;5026;51.494;11.974;2023-11-21T01:26:33;6.50;99.90
9971;DHT22;5026;51.494;11.974;2023-11-21T01:29:01;6.50;99.90
9971;DHT22;5026;51.494;11.974;2023-11-21T01:31:28;6.50;99.90
9971;DHT22;5026;51.494;11.974;2023-11-21T01:33:55;6.40;99.90
9971;DHT22;5026;51.494;11.974;2023-11-21T01:36:22;6.40;99.90
9971;DHT22;5026;51.494;11.974;2023-11-21T01:38:49;6.30;99.90
9971;DHT22;5026;51.494;11.974;2023-11-21T01:41:16;6.30;99.90
9971;DHT22;5026;51.494;11.974;2023-11-21T01:43:43;6.40;99.90
9971;DHT22;5026;51.494;11.974;2023-11-21T01:46:11;6.40;99.90
9971;DHT22;5026;51.494;11.974;2023-11-21T01:48:41;6.30;99.90
9971;DHT22;5026;51.494;11.974;2023-11-21T01:51:08;6.40;99.90
9971;DHT22;5026;51.494;11.974;2023-11-21T01:53:35;6.40;99.90
9971;DHT22;5026;51.494;11.974;2023-11-21T01:56:02;6.40;99.90
9971;DHT22;5026;51.494;11.974;2023-11-21T01:58:31;6.40;99.90
9971;DHT22;5026;51.494;11.974;2023-11-21T02:00:59;6.50;99.90
9971;DHT22;5026;51.494;11.974;2023-11-21T02:03:27;6.50;99.90
9971;DHT22;5026;51.494;11.974;2023-11-21T02:05:54;6.50;99.90
9971;DHT22;5026;51.494;11.974;2023-11-21T02:08:21;6.60;99.90
9971;DHT22;5026;51.494;11.974;2023-11-21T02:10:48;6.60;99.90
9971;DHT22;5026;51.494;11.974;2023-11-21T02:13:14;6.70;99.90
9971;DHT22;5026;51.494;11.974;2023-11-21T02:15:42;6.80;99.90
9971;DHT22;5026;51.494;11.974;2023-11-21T02:18:09;6.80;99.90
9971;DHT22;5026;51.494;11.974;2023-11-21T02:20:38;6.80;99.90
9971;DHT22;5026;51.494;11.974;2023-11-21T02:23:08;6.90;99.90
9971;DHT22;5026;51.494;11.974;2023-11-21T02:25:35;6.90;99.90
9971;DHT22;5026;51.494;11.974;2023-11-21T02:28:03;7.00;99.90
9971;DHT22;5026;51.494;11.974;2023-11-21T02:30:32;7.00;99.90
9971;DHT22;5026;51.494;11.974;2023-11-21T02:32:59;7.00;99.90
9971;DHT22;5026;51.494;11.974;2023-11-21T02:35:26;7.00;99.90
9971;DHT22;5026;51.494;11.974;2023-11-21T02:37:53;7.00;99.90
9971;DHT22;5026;51.494;11.974;2023-11-21T02:40:22;7.10;99.90
9971;DHT22;5026;51.494;11.974;2023-11-21T02:42:50;7.10;99.90
9971;DHT22;5026;51.494;11.974;2023-11-21T02:45:19;7.20;99.90
9971;DHT22;5026;51.494;11.974;2023-11-21T02:47:46;7.10;99.90
9971;DHT22;5026;51.494;11.974;2023-11-21T02:50:14;7.10;99.90
9971;DHT22;5026;51.494;11.974;2023-11-21T02:52:41;7.10;99.90
9971;DHT22;5026;51.494;11.974;2023-11-21T02:55:09;7.20;99.90
9971;DHT22;5026;51.494;11.974;2023-11-21T02:57:38;7.20;99.90
9971;DHT22;5026;51.494;11.974;2023-11-21T03:00:05;7.30;99.90
9971;DHT22;5026;51.494;11.974;2023-11-21T03:02:33;7.20;99.90
9971;DHT22;5026;51.494;11.974;2023-11-21T03:05:02;7.20;99.90
9971;DHT22;5026;51.494;11.974;2023-11-21T03:07:30;7.10;99.90
9971;DHT22;5026;51.494;11.974;2023-11-21T03:09:57;7.10;99.90
9971;DHT22;5026;51.494;11.974;2023-11-21T03:12:24;7.00;99.90
9971;DHT22;5026;51.494;11.974;2023-11-21T03:14:52;7.00;99.90
9971;DHT22;5026;51.494;11.974;2023-11-21T03:17:21;7.00;99.90
9971;DHT22;5026;51.494;11.974;2023-11-21T03:19:48;7.00;99.90
9971;DHT22;5026;51.494;11.974;2023-11-21T03:22:14;7.10;99.90
9971;DHT22;5026;51.494;11.974;2023-11-21T03:24:41;7.20;99.90
9971;DHT22;5026;51.494;11.974;2023-11-21T03:27:08;7.20;99.90
9971;DHT22;5026;51.494;11.974;2023-11-21T03:29:35;7.20;99.90
9971;DHT22;5026;51.494;11.974;2023-11-21T03:32:04;7.20;99.90
9971;DHT22;5026;51.494;11.974;2023-11-21T03:34:32;7.30;99.90
9971;DHT22;5026;51.494;11.974;2023-11-21T03:36:59;7.30;99.90
9971;DHT22;5026;51.494;11.974;2023-11-21T03:39:26;7.30;99.90
9971;DHT22;5026;51.494;11.974;2023-11-21T03:41:55;7.30;99.90
9971;DHT22;5026;51.494;11.974;2023-11-21T03:44:21;7.30;99.90
9971;DHT22;5026;51.494;11.974;2023-11-21T03:46:48;7.30;99.90
9971;DHT22;5026;51.494;11.974;2023-11-21T03:49:17;7.30;99.90
9971;DHT22;5026;51.494;11.974;2023-11-21T03:51:44;7.30;99.90
9971;DHT22;5026;51.494;11.974;2023-11-21T03:54:11;7.30;99.90
9971;DHT22;5026;51.494;11.974;2023-11-21T03:56:39;7.30;99.90
9971;DHT22;5026;51.494;11.974;2023-11-21T03:59:06;7.30;99.90
9971;DHT22;5026;51.494;11.974;2023-11-21T04:01:34;7.30;99.90
9971;DHT22;5026;51.494;11.974;2023-11-21T04:04:00;7.30;99.90
9971;DHT22;5026;51.494;11.974;2023-11-21T04:06:29;7.40;99.90
9971;DHT22;5026;51.494;11.974;2023-11-21T04:08:58;7.40;99.90
9971;DHT22;5026;51.494;11.974;2023-11-21T04:11:25;7.40;99.90
9971;DHT22;5026;51.494;11.974;2023-11-21T04:13:54;7.40;99.90
9971;DHT22;5026;51.494;11.974;2023-11-21T04:16:20;7.40;99.90
9971;DHT22;5026;51.494;11.974;2023-11-21T04:18:47;7.50;99.90
9971;DHT22;5026;51.494;11.974;2023-11-21T04:21:15;7.50;99.90
9971;DHT22;5026;51.494;11.974;2023-11-21T04:23:43;7.50;99.90
9971;DHT22;5026;51.494;11.974;2023-11-21T04:26:10;7.50;99.90
9971;DHT22;5026;51.494;11.974;2023-11-21T04:28:37;7.60;99.90
9971;DHT22;5026;51.494;11.974;2023-11-21T04:31:04;7.60;99.90
9971;DHT22;5026;51.494;11.974;2023-11-21T04:33:32;7.60;99.90
9971;DHT22;5026;51.494;11.974;2023-11-21T04:35:59;7.60;99.90
9971;DHT22;5026;51.494;11.974;2023-11-21T04:38:26;7.60;99.90
9971;DHT22;5026;51.494;11.974;2023-11-21T04:40:54;7.60;99.90
9971;DHT22;5026;51.494;11.974;2023-11-21T04:43:21;7.70;99.90
9971;DHT22;5026;51.494;11.974;2023-11-21T04:45:48;7.70;99.90
9971;DHT22;5026;51.494;11.974;2023-11-21T04:48:15;7.70;99.90
9971;DHT22;5026;51.494;11.974;2023-11-21T04:50:42;7.70;99.90
9971;DHT22;5026;51.494;11.974;2023-11-21T04:53:09;7.70;99.90
9971;DHT22;5026;51.494;11.974;2023-11-21T04:55:38;7.70;99.90
9971;DHT22;5026;51.494;11.974;2023-11-21T04:58:07;7.70;99.90
9971;DHT22;5026;51.494;11.974;2023-11-21T05:00:34;7.70;99.90
9971;DHT22;5026;51.494;11.974;2023-11-21T05:03:02;7.70;99.90
9971;DHT22;5026;51.494;11.974;2023-11-21T05:05:29;7.70;99.90
9971;DHT22;5026;51.494;11.974;2023-11-21T05:07:56;7.70;99.90
9971;DHT22;5026;51.494;11.974;2023-11-21T05:10:23;7.80;99.90
9971;DHT22;5026;51.494;11.974;2023-11-21T05:12:50;7.80;99.90
9971;DHT22;5026;51.494;11.974;2023-11-21T05:15:19;7.80;99.90
9971;DHT22;5026;51.494;11.974;2023-11-21T05:17:46;7.80;99.90
9971;DHT22;5026;51.494;11.974;2023-11-21T05:20:15;7.80;99.90
9971;DHT22;5026;51.494;11.974;2023-11-21T05:22:46;7.80;99.90
9971;DHT22;5026;51.494;11.974;2023-11-21T05:25:14;7.80;99.90
9971;DHT22;5026;51.494;11.974;2023-11-21T05:27:41;7.90;99.90
9971;DHT22;5026;51.494;11.974;2023-11-21T05:30:08;7.90;99.90
9971;DHT22;5026;51.494;11.974;2023-11-21T05:32:40;7.80;99.90
9971;DHT22;5026;51.494;11.974;2023-11-21T05:35:08;7.80;99.90
9971;DHT22;5026;51.494;11.974;2023-11-21T05:37:39;7.80;99.90
9971;DHT22;5026;51.494;11.974;2023-11-21T05:40:07;7.80;99.90
9971;DHT22;5026;51.494;11.974;2023-11-21T05:42:35;7.80;99.90
9971;DHT22;5026;51.494;11.974;2023-11-21T05:45:05;7.80;99.90
9971;DHT22;5026;51.494;11.974;2023-11-21T05:47:38;7.80;99.90
9971;DHT22;5026;51.494;11.974;2023-11-21T05:50:07;7.80;99.90
9971;DHT22;5026;51.494;11.974;2023-11-21T05:52:37;7.80;99.90
9971;DHT22;5026;51.494;11.974;2023-11-21T05:55:05;7.80;99.90
9971;DHT22;5026;51.494;11.974;2023-11-21T05:57:34;7.80;99.90
9971;DHT22;5026;51.494;11.974;2023-11-21T06:00:03;7.80;99.90
9971;DHT22;5026;51.494;11.974;2023-11-21T06:02:38;7.80;99.90
9971;DHT22;5026;51.494;11.974;2023-11-21T06:05:06;7.80;99.90
9971;DHT22;5026;51.494;11.974;2023-11-21T06:07:34;7.80;99.90
9971;DHT22;5026;51.494;11.974;2023-11-21T06:10:02;7.80;99.90
9971;DHT22;5026;51.494;11.974;2023-11-21T06:12:32;7.80;99.90
9971;DHT22;5026;51.494;11.974;2023-11-21T06:15:04;7.90;99.90
9971;DHT22;5026;51.494;11.974;2023-11-21T06:17:32;7.90;99.90
9971;DHT22;5026;51.494;11.974;2023-11-21T06:20:03;7.90;99.90
9971;DHT22;5026;51.494;11.974;2023-11-21T06:22:34;7.80;99.90
9971;DHT22;5026;51.494;11.974;2023-11-21T06:25:01;7.90;99.90
9971;DHT22;5026;51.494;11.974;2023-11-21T06:27:28;7.80;99.90
9971;DHT22;5026;51.494;11.974;2023-11-21T06:29:55;7.80;99.90
9971;DHT22;5026;51.494;11.974;2023-11-21T06:32:23;7.90;99.90
9971;DHT22;5026;51.494;11.974;2023-11-21T06:34:50;7.90;99.90
9971;DHT22;5026;51.494;11.974;2023-11-21T06:37:21;7.90;99.90
9971;DHT22;5026;51.494;11.974;2023-11-21T06:39:48;7.90;99.90
9971;DHT22;5026;51.494;11.974;2023-11-21T06:42:17;7.90;99.90
9971;DHT22;5026;51.494;11.974;2023-11-21T06:44:45;8.00;99.90
9971;DHT22;5026;51.494;11.974;2023-11-21T06:47:12;8.00;99.90
9971;DHT22;5026;51.494;11.974;2023-11-21T06:49:39;8.00;99.90
9971;DHT22;5026;51.494;11.974;2023-11-21T06:52:06;8.10;99.90
9971;DHT22;5026;51.494;11.974;2023-11-21T06:54:35;8.00;99.90
9971;DHT22;5026;51.494;11.974;2023-11-21T06:57:03;8.00;99.90
9971;DHT22;5026;51.494;11.974;2023-11-21T06:59:30;8.00;99.90
9971;DHT22;5026;51.494;11.974;2023-11-21T07:01:57;8.00;99.90
9971;DHT22;5026;51.494;11.974;2023-11-21T07:04:25;8.10;99.90
9971;DHT22;5026;51.494;11.974;2023-11-21T07:06:52;8.10;99.90
9971;DHT22;5026;51.494;11.974;2023-11-21T07:09:19;8.10;99.90
9971;DHT22;5026;51.494;11.974;2023-11-21T07:11:49;8.10;99.90
9971;DHT22;5026;51.494;11.974;2023-11-21T07:14:16;8.10;99.90
9971;DHT22;5026;51.494;11.974;2023-11-21T07:16:45;8.20;99.90
9971;DHT22;5026;51.494;11.974;2023-11-21T07:19:12;8.10;99.90
9971;DHT22;5026;51.494;11.974;2023-11-21T07:21:40;8.10;99.90
9971;DHT22;5026;51.494;11.974;2023-11-21T07:24:08;8.00;99.90
9971;DHT22;5026;51.494;11.974;2023-11-21T07:26:36;8.00;99.90
9971;DHT22;5026;51.494;11.974;2023-11-21T07:29:06;7.90;99.90
9971;DHT22;5026;51.494;11.974;2023-11-21T07:31:33;8.00;99.90
9971;DHT22;5026;51.494;11.974;2023-11-21T07:34:00;7.90;99.90
9971;DHT22;5026;51.494;11.974;2023-11-21T07:36:27;7.80;99.90
9971;DHT22;5026;51.494;11.974;2023-11-21T07:38:54;7.80;99.90
9971;DHT22;5026;51.494;11.974;2023-11-21T07:41:22;7.80;99.90
9971;DHT22;5026;51.494;11.974;2023-11-21T07:43:50;7.70;99.90
9971;DHT22;5026;51.494;11.974;2023-11-21T07:46:18;7.70;99.90
9971;DHT22;5026;51.494;11.974;2023-11-21T07:48:45;7.60;99.90
9971;DHT22;5026;51.494;11.974;2023-11-21T07:51:12;7.80;99.90
9971;DHT22;5026;51.494;11.974;2023-11-21T07:53:39;7.70;99.90
9971;DHT22;5026;51.494;11.974;2023-11-21T07:56:08;7.70;99.90
9971;DHT22;5026;51.494;11.974;2023-11-21T07:58:35;7.90;99.90
9971;DHT22;5026;51.494;11.974;2023-11-21T08:01:03;7.70;99.90
9971;DHT22;5026;51.494;11.974;2023-11-21T08:03:31;7.60;99.90
9971;DHT22;5026;51.494;11.974;2023-11-21T08:05:59;7.60;99.90
9971;DHT22;5026;51.494;11.974;2023-11-21T08:08:26;7.60;99.90
9971;DHT22;5026;51.494;11.974;2023-11-21T08:10:53;7.40;99.90
9971;DHT22;5026;51.494;11.974;2023-11-21T08:13:23;7.40;99.90
9971;DHT22;5026;51.494;11.974;2023-11-21T08:15:50;7.50;99.90
9971;DHT22;5026;51.494;11.974;2023-11-21T08:18:17;7.60;99.90
9971;DHT22;5026;51.494;11.974;2023-11-21T08:20:45;7.50;99.90
9971;DHT22;5026;51.494;11.974;2023-11-21T08:23:14;7.50;99.90
9971;DHT22;5026;51.494;11.974;2023-11-21T08:25:43;7.50;99.90
9971;DHT22;5026;51.494;11.974;2023-11-21T08:28:10;7.40;99.90
9971;DHT22;5026;51.494;11.974;2023-11-21T08:30:37;7.40;99.90
9971;DHT22;5026;51.494;11.974;2023-11-21T08:33:05;7.30;99.90
9971;DHT22;5026;51.494;11.974;2023-11-21T08:35:32;7.30;99.90
9971;DHT22;5026;51.494;11.974;2023-11-21T08:38:01;7.20;99.90
9971;DHT22;5026;51.494;11.974;2023-11-21T08:40:28;7.10;99.90
9971;DHT22;5026;51.494;11.974;2023-11-21T08:42:55;7.20;99.90
9971;DHT22;5026;51.494;11.974;2023-11-21T08:45:24;7.20;99.90
9971;DHT22;5026;51.494;11.974;2023-11-21T08:47:51;7.30;99.90
9971;DHT22;5026;51.494;11.974;2023-11-21T08:50:18;7.20;99.90
9971;DHT22;5026;51.494;11.974;2023-11-21T08:52:45;7.30;99.90
9971;DHT22;5026;51.494;11.974;2023-11-21T08:55:14;7.30;99.90
9971;DHT22;5026;51.494;11.974;2023-11-21T08:57:44;7.40;99.90
9971;DHT22;5026;51.494;11.974;2023-11-21T09:00:12;7.50;99.90
9971;DHT22;5026;51.494;11.974;2023-11-21T09:02:42;7.60;99.90
9971;DHT22;5026;51.494;11.974;2023-11-21T09:05:10;7.50;99.90
9971;DHT22;5026;51.494;11.974;2023-11-21T09:07:39;7.50;99.90
9971;DHT22;5026;51.494;11.974;2023-11-21T09:10:07;7.50;99.90
9971;DHT22;5026;51.494;11.974;2023-11-21T09:12:36;7.40;99.90
9971;DHT22;5026;51.494;11.974;2023-11-21T09:15:04;7.40;99.90
9971;DHT22;5026;51.494;11.974;2023-11-21T09:17:32;7.20;99.90
9971;DHT22;5026;51.494;11.974;2023-11-21T09:19:59;7.10;99.90
9971;DHT22;5026;51.494;11.974;2023-11-21T09:22:26;7.10;99.90
9971;DHT22;5026;51.494;11.974;2023-11-21T09:24:55;7.00;99.90
9971;DHT22;5026;51.494;11.974;2023-11-21T09:27:23;6.90;99.90
9971;DHT22;5026;51.494;11.974;2023-11-21T09:29:52;6.90;99.90
9971;DHT22;5026;51.494;11.974;2023-11-21T09:32:20;6.70;99.90
9971;DHT22;5026;51.494;11.974;2023-11-21T09:34:47;6.70;99.90
9971;DHT22;5026;51.494;11.974;2023-11-21T09:37:14;6.80;99.90
9971;DHT22;5026;51.494;11.974;2023-11-21T09:39:42;6.70;99.90
9971;DHT22;5026;51.494;11.974;2023-11-21T09:42:11;6.70;99.90
9971;DHT22;5026;51.494;11.974;2023-11-21T09:44:45;6.60;99.90
9971;DHT22;5026;51.494;11.974;2023-11-21T09:47:16;6.60;99.90
9971;DHT22;5026;51.494;11.974;2023-11-21T09:49:48;6.60;99.90
9971;DHT22;5026;51.494;11.974;2023-11-21T09:52:22;6.70;99.90
9971;DHT22;5026;51.494;11.974;2023-11-21T09:54:51;6.60;99.90
9971;DHT22;5026;51.494;11.974;2023-11-21T09:57:19;6.60;99.90
9971;DHT22;5026;51.494;11.974;2023-11-21T09:59:50;6.70;99.90
9971;DHT22;5026;51.494;11.974;2023-11-21T10:02:19;6.80;99.90
9971;DHT22;5026;51.494;11.974;2023-11-21T10:04:47;6.90;99.90
9971;DHT22;5026;51.494;11.974;2023-11-21T10:07:17;6.90;99.90
9971;DHT22;5026;51.494;11.974;2023-11-21T10:09:46;7.10;99.90
9971;DHT22;5026;51.494;11.974;2023-11-21T10:12:15;7.20;99.90
9971;DHT22;5026;51.494;11.974;2023-11-21T10:14:42;7.20;99.90
9971;DHT22;5026;51.494;11.974;2023-11-21T10:17:10;7.30;99.90
9971;DHT22;5026;51.494;11.974;2023-11-21T10:19:40;7.20;99.90
9971;DHT22;5026;51.494;11.974;2023-11-21T10:22:07;7.00;99.90
9971;DHT22;5026;51.494;11.974;2023-11-21T10:24:35;6.90;99.90
9971;DHT22;5026;51.494;11.974;2023-11-21T10:27:05;6.80;99.90
9971;DHT22;5026;51.494;11.974;2023-11-21T10:29:33;6.90;99.90
9971;DHT22;5026;51.494;11.974;2023-11-21T10:32:02;6.90;99.90
9971;DHT22;5026;51.494;11.974;2023-11-21T10:34:29;6.90;99.90
9971;DHT22;5026;51.494;11.974;2023-11-21T10:36:58;7.00;99.90
9971;DHT22;5026;51.494;11.974;2023-11-21T10:39:25;6.90;99.90
9971;DHT22;5026;51.494;11.974;2023-11-21T10:41:56;6.90;99.90
9971;DHT22;5026;51.494;11.974;2023-11-21T10:44:23;6.90;99.90
9971;DHT22;5026;51.494;11.974;2023-11-21T10:46:52;6.90;99.90
9971;DHT22;5026;51.494;11.974;2023-11-21T10:49:22;7.00;99.90
9971;DHT22;5026;51.494;11.974;2023-11-21T10:51:50;7.20;99.90
9971;DHT22;5026;51.494;11.974;2023-11-21T10:54:21;7.30;99.90
9971;DHT22;5026;51.494;11.974;2023-11-21T10:56:50;7.10;99.90
9971;DHT22;5026;51.494;11.974;2023-11-21T10:59:18;7.10;99.90
9971;DHT22;5026;51.494;11.974;2023-11-21T11:01:47;7.30;99.90
9971;DHT22;5026;51.494;11.974;2023-11-21T11:04:18;7.20;99.90
9971;DHT22;5026;51.494;11.974;2023-11-21T11:06:51;7.20;99.90
9971;DHT22;5026;51.494;11.974;2023-11-21T11:09:19;7.20;99.90
9971;DHT22;5026;51.494;11.974;2023-11-21T11:11:46;7.30;99.90
9971;DHT22;5026;51.494;11.974;2023-11-21T11:14:14;7.40;99.90
9971;DHT22;5026;51.494;11.974;2023-11-21T11:16:42;7.10;99.90
9971;DHT22;5026;51.494;11.974;2023-11-21T11:19:11;7.00;99.90
9971;DHT22;5026;51.494;11.974;2023-11-21T11:21:46;7.10;99.90
9971;DHT22;5026;51.494;11.974;2023-11-21T11:24:32;7.10;99.90
9971;DHT22;5026;51.494;11.974;2023-11-21T11:27:09;6.90;99.90
9971;DHT22;5026;51.494;11.974;2023-11-21T11:29:46;7.00;99.90
9971;DHT22;5026;51.494;11.974;2023-11-21T11:32:27;6.80;99.90
9971;DHT22;5026;51.494;11.974;2023-11-21T11:35:04;6.90;99.90
9971;DHT22;5026;51.494;11.974;2023-11-21T11:37:34;6.70;99.90
9971;DHT22;5026;51.494;11.974;2023-11-21T11:40:06;6.70;99.90
9971;DHT22;5026;51.494;11.974;2023-11-21T11:42:33;6.50;99.90
9971;DHT22;5026;51.494;11.974;2023-11-21T11:45:00;6.60;99.90
9971;DHT22;5026;51.494;11.974;2023-11-21T11:47:31;6.60;99.90
9971;DHT22;5026;51.494;11.974;2023-11-21T11:50:06;6.60;99.90
9971;DHT22;5026;51.494;11.974;2023-11-21T11:52:40;6.50;99.90
9971;DHT22;5026;51.494;11.974;2023-11-21T11:55:10;6.50;99.90
9971;DHT22;5026;51.494;11.974;2023-11-21T11:57:38;6.30;99.90
9971;DHT22;5026;51.494;11.974;2023-11-21T12:00:13;6.30;99.90
9971;DHT22;5026;51.494;11.974;2023-11-21T12:02:45;6.30;99.90
9971;DHT22;5026;51.494;11.974;2023-11-21T12:05:14;6.20;99.90
9971;DHT22;5026;51.494;11.974;2023-11-21T12:07:45;6.20;99.90
9971;DHT22;5026;51.494;11.974;2023-11-21T12:10:15;6.20;99.90
9971;DHT22;5026;51.494;11.974;2023-11-21T12:12:47;5.90;99.90
9971;DHT22;5026;51.494;11.974;2023-11-21T12:15:18;5.70;99.90
9971;DHT22;5026;51.494;11.974;2023-11-21T12:17:45;5.80;99.90
9971;DHT22;5026;51.494;11.974;2023-11-21T12:20:13;5.80;99.90
9971;DHT22;5026;51.494;11.974;2023-11-21T12:22:45;5.80;99.90
9971;DHT22;5026;51.494;11.974;2023-11-21T12:25:16;5.80;99.90
9971;DHT22;5026;51.494;11.974;2023-11-21T12:27:44;5.90;99.90
9971;DHT22;5026;51.494;11.974;2023-11-21T12:30:13;6.00;99.90
9971;DHT22;5026;51.494;11.974;2023-11-21T12:32:44;5.80;99.90
9971;DHT22;5026;51.494;11.974;2023-11-21T12:35:13;5.80;99.90
9971;DHT22;5026;51.494;11.974;2023-11-21T12:37:42;5.80;99.90
9971;DHT22;5026;51.494;11.974;2023-11-21T12:40:10;5.90;99.90
9971;DHT22;5026;51.494;11.974;2023-11-21T12:42:43;5.90;99.90
9971;DHT22;5026;51.494;11.974;2023-11-21T12:45:19;5.70;99.90
9971;DHT22;5026;51.494;11.974;2023-11-21T12:47:47;5.60;99.90
9971;DHT22;5026;51.494;11.974;2023-11-21T12:50:14;5.50;99.90
9971;DHT22;5026;51.494;11.974;2023-11-21T12:52:42;5.60;99.90
9971;DHT22;5026;51.494;11.974;2023-11-21T12:55:15;5.70;99.90
9971;DHT22;5026;51.494;11.974;2023-11-21T12:57:44;5.80;99.90
9971;DHT22;5026;51.494;11.974;2023-11-21T13:00:15;5.70;99.90
9971;DHT22;5026;51.494;11.974;2023-11-21T13:02:54;5.80;99.90
9971;DHT22;5026;51.494;11.974;2023-11-21T13:05:30;5.90;99.90
9971;DHT22;5026;51.494;11.974;2023-11-21T13:07:58;5.90;99.90
9971;DHT22;5026;51.494;11.974;2023-11-21T13:10:29;5.70;99.90
9971;DHT22;5026;51.494;11.974;2023-11-21T13:12:58;5.60;99.90
9971;DHT22;5026;51.494;11.974;2023-11-21T13:15:25;5.50;99.90
9971;DHT22;5026;51.494;11.974;2023-11-21T13:17:53;5.60;99.90
9971;DHT22;5026;51.494;11.974;2023-11-21T13:20:21;5.70;99.90
9971;DHT22;5026;51.494;11.974;2023-11-21T13:22:50;5.70;99.90
9971;DHT22;5026;51.494;11.974;2023-11-21T13:25:20;5.60;99.90
9971;DHT22;5026;51.494;11.974;2023-11-21T13:27:47;5.60;99.90
9971;DHT22;5026;51.494;11.974;2023-11-21T13:30:16;5.60;99.90
9971;DHT22;5026;51.494;11.974;2023-11-21T13:32:44;5.60;99.90
9971;DHT22;5026;51.494;11.974;2023-11-21T13:35:13;5.80;99.90
9971;DHT22;5026;51.494;11.974;2023-11-21T13:37:50;5.70;99.90
9971;DHT22;5026;51.494;11.974;2023-11-21T13:40:22;5.70;99.90
9971;DHT22;5026;51.494;11.974;2023-11-21T13:42:52;5.70;99.90
9971;DHT22;5026;51.494;11.974;2023-11-21T13:45:22;5.70;99.90
9971;DHT22;5026;51.494;11.974;2023-11-21T13:47:51;5.80;99.90
9971;DHT22;5026;51.494;11.974;2023-11-21T13:50:22;5.70;99.90
9971;DHT22;5026;51.494;11.974;2023-11-21T13:52:52;5.70;99.90
9971;DHT22;5026;51.494;11.974;2023-11-21T13:55:19;5.70;99.90
9971;DHT22;5026;51.494;11.974;2023-11-21T13:57:49;5.60;99.90
9971;DHT22;5026;51.494;11.974;2023-11-21T14:00:18;5.60;99.90
9971;DHT22;5026;51.494;11.974;2023-11-21T14:03:06;5.60;99.90
9971;DHT22;5026;51.494;11.974;2023-11-21T14:05:41;5.60;99.90
9971;DHT22;5026;51.494;11.974;2023-11-21T14:08:10;5.60;99.90
9971;DHT22;5026;51.494;11.974;2023-11-21T14:10:42;5.50;99.90
9971;DHT22;5026;51.494;11.974;2023-11-21T14:13:10;5.60;99.90
9971;DHT22;5026;51.494;11.974;2023-11-21T14:15:39;5.60;99.90
9971;DHT22;5026;51.494;11.974;2023-11-21T14:18:11;5.50;99.90
9971;DHT22;5026;51.494;11.974;2023-11-21T14:20:40;5.50;99.90
9971;DHT22;5026;51.494;11.974;2023-11-21T14:23:07;5.60;99.90
9971;DHT22;5026;51.494;11.974;2023-11-21T14:25:34;5.70;99.90
9971;DHT22;5026;51.494;11.974;2023-11-21T14:28:02;5.50;99.90
9971;DHT22;5026;51.494;11.974;2023-11-21T14:30:31;5.20;99.90
9971;DHT22;5026;51.494;11.974;2023-11-21T14:33:01;5.30;99.90
9971;DHT22;5026;51.494;11.974;2023-11-21T14:35:29;5.90;99.90
9971;DHT22;5026;51.494;11.974;2023-11-21T14:37:58;5.40;99.90
9971;DHT22;5026;51.494;11.974;2023-11-21T14:40:26;5.40;99.90
9971;DHT22;5026;51.494;11.974;2023-11-21T14:42:59;5.20;99.90
9971;DHT22;5026;51.494;11.974;2023-11-21T14:45:26;5.20;99.90
9971;DHT22;5026;51.494;11.974;2023-11-21T14:47:54;5.20;99.90
9971;DHT22;5026;51.494;11.974;2023-11-21T14:50:33;5.10;99.90
9971;DHT22;5026;51.494;11.974;2023-11-21T14:53:17;5.10;99.90
9971;DHT22;5026;51.494;11.974;2023-11-21T14:56:01;5.10;99.90
9971;DHT22;5026;51.494;11.974;2023-11-21T14:58:31;5.20;99.90
9971;DHT22;5026;51.494;11.974;2023-11-21T15:00:57;5.20;99.90
9971;DHT22;5026;51.494;11.974;2023-11-21T15:03:27;5.20;99.90
9971;DHT22;5026;51.494;11.974;2023-11-21T15:06:16;5.20;99.90
9971;DHT22;5026;51.494;11.974;2023-11-21T15:08:53;5.20;99.90
9971;DHT22;5026;51.494;11.974;2023-11-21T15:11:25;5.20;99.90
9971;DHT22;5026;51.494;11.974;2023-11-21T15:13:56;5.20;99.90
9971;DHT22;5026;51.494;11.974;2023-11-21T15:16:22;5.20;99.90
9971;DHT22;5026;51.494;11.974;2023-11-21T15:18:51;5.30;99.90
9971;DHT22;5026;51.494;11.974;2023-11-21T15:21:20;5.20;99.90
9971;DHT22;5026;51.494;11.974;2023-11-21T15:23:49;5.20;99.90
9971;DHT22;5026;51.494;11.974;2023-11-21T15:26:17;5.10;99.90
9971;DHT22;5026;51.494;11.974;2023-11-21T15:28:44;5.10;99.90
9971;DHT22;5026;51.494;11.974;2023-11-21T15:31:11;5.20;99.90
9971;DHT22;5026;51.494;11.974;2023-11-21T15:33:38;5.20;99.90
9971;DHT22;5026;51.494;11.974;2023-11-21T15:36:05;5.30;99.90
9971;DHT22;5026;51.494;11.974;2023-11-21T15:38:37;5.30;99.90
9971;DHT22;5026;51.494;11.974;2023-11-21T15:41:04;5.40;99.90
9971;DHT22;5026;51.494;11.974;2023-11-21T15:43:34;5.30;99.90
9971;DHT22;5026;51.494;11.974;2023-11-21T15:46:01;5.30;99.90
9971;DHT22;5026;51.494;11.974;2023-11-21T15:48:33;5.40;99.90
9971;DHT22;5026;51.494;11.974;2023-11-21T15:51:00;5.30;99.90
9971;DHT22;5026;51.494;11.974;2023-11-21T15:53:28;5.30;99.90
9971;DHT22;5026;51.494;11.974;2023-11-21T15:55:56;5.20;99.90
9971;DHT22;5026;51.494;11.974;2023-11-21T15:58:23;5.00;99.90
9971;DHT22;5026;51.494;11.974;2023-11-21T16:00:51;5.00;99.90
9971;DHT22;5026;51.494;11.974;2023-11-21T16:03:18;6.40;99.90
9971;DHT22;5026;51.494;11.974;2023-11-21T16:05:47;4.80;99.90
9971;DHT22;5026;51.494;11.974;2023-11-21T16:08:14;4.80;99.90
9971;DHT22;5026;51.494;11.974;2023-11-21T16:10:43;4.90;99.90